createdAt,value
2023-05-10T00:01:13.953Z,98355.65
2023-05-10T00:03:42.281Z,98353.89
2023-05-10T00:06:10.558Z,98353.42
2023-05-10T00:08:38.799Z,98352.05
2023-05-10T00:11:06.848Z,98348.34
2023-05-10T00:13:34.918Z,98345.38
2023-05-10T00:16:03.032Z,98347.83
2023-05-10T00:18:31.283Z,98343.40
2023-05-10T00:20:59.458Z,98343.50
2023-05-10T00:23:27.532Z,98342.90
2023-05-10T00:25:55.718Z,98338.98
2023-05-10T00:28:25.513Z,98337.33
2023-05-10T00:30:53.592Z,98336.68
2023-05-10T00:33:22.072Z,98337.89
2023-05-10T00:35:50.750Z,98339.67
2023-05-10T00:38:18.811Z,98342.81
2023-05-10T00:40:47.581Z,98338.50
2023-05-10T00:43:22.082Z,98334.73
2023-05-10T00:45:50.974Z,98334.69
2023-05-10T00:48:20.012Z,98332.98
2023-05-10T00:50:48.498Z,98332.95
2023-05-10T00:53:17.356Z,98331.89
2023-05-10T00:55:45.944Z,98333.58
2023-05-10T00:58:14.339Z,98332.08
2023-05-10T01:00:44.585Z,98328.64
2023-05-10T01:03:13.069Z,98328.70
2023-05-10T01:05:41.321Z,98329.48
2023-05-10T01:08:09.923Z,98329.68
2023-05-10T01:10:38.389Z,98325.31
2023-05-10T01:13:06.666Z,98324.33
2023-05-10T01:15:35.573Z,98320.22
2023-05-10T01:18:04.358Z,98318.65
2023-05-10T01:20:41.215Z,98317.66
2023-05-10T01:23:35.393Z,98312.80
2023-05-10T01:26:23.843Z,98312.17
2023-05-10T01:28:54.576Z,98311.95
2023-05-10T01:31:42.831Z,98310.30
2023-05-10T01:34:21.952Z,98314.39
2023-05-10T01:37:00.395Z,98311.05
2023-05-10T01:39:37.407Z,98313.13
2023-05-10T01:42:12.692Z,98313.48
2023-05-10T01:44:58.826Z,98315.61
2023-05-10T01:48:12.091Z,98314.85
2023-05-10T01:50:44.373Z,98313.81
2023-05-10T01:53:19.127Z,98317.81
2023-05-10T01:55:53.967Z,98317.57
2023-05-10T01:58:30.587Z,98316.10
2023-05-10T02:01:02.713Z,98316.96
2023-05-10T02:03:33.864Z,98317.40
2023-05-10T02:06:03.335Z,98315.48
2023-05-10T02:08:34.172Z,98309.34
2023-05-10T02:11:05.052Z,98310.23
2023-05-10T02:13:37.114Z,98308.52
2023-05-10T02:16:06.718Z,98306.11
2023-05-10T02:18:38.079Z,98305.73
2023-05-10T02:21:06.937Z,98305.70
2023-05-10T02:23:36.330Z,98308.13
2023-05-10T02:26:07.105Z,98312.65
2023-05-10T02:28:37.186Z,98312.99
2023-05-10T02:31:07.760Z,98306.87
2023-05-10T02:33:36.456Z,98310.45
2023-05-10T02:36:05.394Z,98311.17
2023-05-10T02:38:36.083Z,98312.00
2023-05-10T02:41:06.970Z,98306.94
2023-05-10T02:43:36.663Z,98302.38
2023-05-10T02:46:05.094Z,98300.91
2023-05-10T02:48:33.990Z,98298.15
2023-05-10T02:51:08.145Z,98296.48
2023-05-10T02:53:39.743Z,98295.42
2023-05-10T02:56:15.778Z,98298.51
2023-05-10T02:58:43.950Z,98296.17
2023-05-10T03:01:12.054Z,98298.88
2023-05-10T03:03:40.236Z,98297.22
2023-05-10T03:06:09.426Z,98297.83
2023-05-10T03:08:38.215Z,98297.14
2023-05-10T03:11:50.933Z,98296.38
2023-05-10T03:14:46.299Z,98297.67
2023-05-10T03:17:56.769Z,98296.40
2023-05-10T03:20:37.766Z,98288.77
2023-05-10T03:23:14.681Z,98281.46
2023-05-10T03:25:44.891Z,98284.16
2023-05-10T03:28:13.841Z,98280.34
2023-05-10T03:30:43.953Z,98281.45
2023-05-10T03:33:13.924Z,98280.77
2023-05-10T03:35:46.737Z,98279.15
2023-05-10T03:38:15.261Z,98278.61
2023-05-10T03:40:43.487Z,98279.89
2023-05-10T03:43:11.710Z,98281.39
2023-05-10T03:45:40.066Z,98278.03
2023-05-10T03:48:08.474Z,98277.84
2023-05-10T03:50:36.663Z,98274.45
2023-05-10T03:53:05.003Z,98273.57
2023-05-10T03:55:37.205Z,98275.30
2023-05-10T03:58:05.463Z,98272.27
2023-05-10T04:00:34.353Z,98270.33
2023-05-10T04:03:02.766Z,98265.30
2023-05-10T04:05:31.333Z,98265.55
2023-05-10T04:07:59.790Z,98266.63
2023-05-10T04:10:27.822Z,98265.89
2023-05-10T04:12:55.973Z,98263.17
2023-05-10T04:15:24.624Z,98265.48
2023-05-10T04:17:52.817Z,98262.89
2023-05-10T04:20:21.064Z,98263.83
2023-05-10T04:22:49.263Z,98263.56
2023-05-10T04:25:18.236Z,98267.36
2023-05-10T04:27:46.234Z,98269.70
2023-05-10T04:30:14.560Z,98269.69
2023-05-10T04:32:43.070Z,98272.06
2023-05-10T04:35:12.031Z,98270.34
2023-05-10T04:37:40.222Z,98267.25
2023-05-10T04:40:09.220Z,98264.77
2023-05-10T04:42:37.292Z,98264.81
2023-05-10T04:45:06.207Z,98263.04
2023-05-10T04:47:34.148Z,98263.61
2023-05-10T04:50:02.512Z,98263.34
2023-05-10T04:52:30.686Z,98263.06
2023-05-10T04:54:59.238Z,98261.27
2023-05-10T04:57:27.455Z,98259.02
2023-05-10T04:59:55.619Z,98260.14
2023-05-10T05:02:24.778Z,98260.95
2023-05-10T05:04:52.967Z,98262.82
2023-05-10T05:07:21.134Z,98262.80
2023-05-10T05:09:49.163Z,98265.19
2023-05-10T05:12:17.566Z,98259.86
2023-05-10T05:14:46.000Z,98266.50
2023-05-10T05:17:14.243Z,98266.42
2023-05-10T05:19:42.641Z,98264.44
2023-05-10T05:22:10.733Z,98265.65
2023-05-10T05:24:39.356Z,98261.66
2023-05-10T05:27:08.082Z,98257.35
2023-05-10T05:29:36.153Z,98261.59
2023-05-10T05:32:05.127Z,98262.55
2023-05-10T05:34:33.771Z,98262.58
2023-05-10T05:37:01.804Z,98262.45
2023-05-10T05:39:29.816Z,98258.89
2023-05-10T05:41:57.813Z,98257.27
2023-05-10T05:44:26.663Z,98254.62
2023-05-10T05:46:54.809Z,98256.39
2023-05-10T05:49:23.148Z,98255.95
2023-05-10T05:51:51.496Z,98256.67
2023-05-10T05:54:19.729Z,98258.52
2023-05-10T05:56:48.023Z,98256.41
2023-05-10T05:59:16.197Z,98260.05
2023-05-10T06:01:44.313Z,98257.21
2023-05-10T06:04:13.663Z,98255.48
2023-05-10T06:06:42.276Z,98259.50
2023-05-10T06:09:11.023Z,98257.04
2023-05-10T06:11:39.575Z,98254.04
2023-05-10T06:14:09.183Z,98253.04
2023-05-10T06:16:37.919Z,98250.63
2023-05-10T06:19:06.282Z,98251.83
2023-05-10T06:21:34.528Z,98254.60
2023-05-10T06:24:04.041Z,98255.30
2023-05-10T06:26:32.136Z,98257.04
2023-05-10T06:29:00.512Z,98259.34
2023-05-10T06:31:28.699Z,98254.33
2023-05-10T06:33:57.005Z,98254.30
2023-05-10T06:36:27.465Z,98248.58
2023-05-10T06:38:56.105Z,98252.90
2023-05-10T06:41:24.994Z,98257.40
2023-05-10T06:43:53.130Z,98253.73
2023-05-10T06:46:21.530Z,98255.05
2023-05-10T06:48:49.580Z,98258.03
2023-05-10T06:51:18.867Z,98260.61
2023-05-10T06:53:46.950Z,98268.21
2023-05-10T06:56:15.245Z,98252.84
2023-05-10T06:58:43.736Z,98261.69
2023-05-10T07:01:12.026Z,98258.21
2023-05-10T07:03:40.258Z,98259.16
2023-05-10T07:06:15.668Z,98255.84
2023-05-10T07:08:47.051Z,98241.67
2023-05-10T07:11:15.160Z,98240.80
2023-05-10T07:13:45.393Z,98247.66
2023-05-10T07:16:13.635Z,98244.15
2023-05-10T07:18:42.069Z,98242.28
2023-05-10T07:21:10.281Z,98247.63
2023-05-10T07:23:38.751Z,98247.55
2023-05-10T07:26:07.053Z,98250.67
2023-05-10T07:28:37.697Z,98255.15
2023-05-10T07:31:06.053Z,98245.94
2023-05-10T07:33:34.258Z,98249.84
2023-05-10T07:36:02.374Z,98249.72
2023-05-10T07:38:30.502Z,98245.59
2023-05-10T07:40:58.898Z,98246.80
2023-05-10T07:43:27.059Z,98238.71
2023-05-10T07:45:56.388Z,98233.00
2023-05-10T07:48:24.724Z,98233.03
2023-05-10T07:50:52.914Z,98232.13
2023-05-10T07:53:21.194Z,98227.61
2023-05-10T07:55:53.014Z,98228.11
2023-05-10T07:58:21.096Z,98227.67
2023-05-10T08:00:50.393Z,98228.20
2023-05-10T08:03:18.703Z,98227.92
2023-05-10T08:05:47.417Z,98233.03
2023-05-10T08:08:16.039Z,98236.23
2023-05-10T08:10:44.225Z,98240.58
2023-05-10T08:13:12.248Z,98247.24
2023-05-10T08:15:40.794Z,98236.77
2023-05-10T08:18:09.033Z,98237.92
2023-05-10T08:20:37.302Z,98232.55
2023-05-10T08:23:05.514Z,98236.91
2023-05-10T08:25:33.893Z,98233.02
2023-05-10T08:28:01.963Z,98223.75
2023-05-10T08:30:30.383Z,98224.25
2023-05-10T08:32:58.659Z,98220.48
2023-05-10T08:35:27.152Z,98218.36
2023-05-10T08:37:55.432Z,98219.59
2023-05-10T08:40:27.264Z,98223.56
2023-05-10T08:43:16.566Z,98224.50
2023-05-10T08:45:48.651Z,98212.41
2023-05-10T08:48:18.118Z,98209.92
2023-05-10T08:50:46.398Z,98211.14
2023-05-10T08:53:16.436Z,98212.63
2023-05-10T08:55:44.594Z,98219.35
2023-05-10T08:58:13.074Z,98219.94
2023-05-10T09:00:41.259Z,98207.41
2023-05-10T09:03:10.340Z,98207.17
2023-05-10T09:05:38.844Z,98209.33
2023-05-10T09:08:09.163Z,98210.45
2023-05-10T09:10:39.646Z,98205.91
2023-05-10T09:13:11.009Z,98212.27
2023-05-10T09:15:40.129Z,98207.66
2023-05-10T09:18:08.386Z,98197.44
2023-05-10T09:20:36.719Z,98195.04
2023-05-10T09:23:04.829Z,98198.20
2023-05-10T09:25:36.111Z,98195.20
2023-05-10T09:28:07.688Z,98187.22
2023-05-10T09:30:36.728Z,98193.38
2023-05-10T09:33:05.210Z,98193.00
2023-05-10T09:35:34.548Z,98185.05
2023-05-10T09:38:05.368Z,98186.55
2023-05-10T09:40:33.563Z,98194.67
2023-05-10T09:43:02.616Z,98187.24
2023-05-10T09:45:31.577Z,98193.83
2023-05-10T09:48:01.863Z,98178.37
2023-05-10T09:50:31.189Z,98177.05
2023-05-10T09:53:01.441Z,98167.81
2023-05-10T09:55:47.683Z,98176.57
2023-05-10T09:58:16.360Z,98175.14
2023-05-10T10:00:46.413Z,98167.03
2023-05-10T10:03:17.388Z,98166.73
2023-05-10T10:05:47.302Z,98165.11
2023-05-10T10:08:17.793Z,98158.10
2023-05-10T10:10:47.597Z,98154.56
2023-05-10T10:13:16.667Z,98157.00
2023-05-10T10:15:45.729Z,98167.75
2023-05-10T10:18:17.908Z,98161.22
2023-05-10T10:20:46.801Z,98152.55
2023-05-10T10:23:17.324Z,98153.29
2023-05-10T10:25:49.927Z,98156.89
2023-05-10T10:28:18.586Z,98149.58
2023-05-10T10:30:49.729Z,98141.45
2023-05-10T10:33:36.813Z,98134.55
2023-05-10T10:36:05.781Z,98137.25
2023-05-10T10:38:49.034Z,98134.07
2023-05-10T10:41:32.650Z,98127.97
2023-05-10T10:44:33.361Z,98120.66
2023-05-10T10:47:06.676Z,98119.36
2023-05-10T10:49:39.172Z,98117.86
2023-05-10T10:52:24.295Z,98117.54
2023-05-10T10:55:20.294Z,98111.63
2023-05-10T10:57:49.895Z,98109.20
2023-05-10T11:00:31.987Z,98106.25
2023-05-10T11:03:08.265Z,98115.52
2023-05-10T11:05:52.320Z,98111.46
2023-05-10T11:08:21.199Z,98110.23
2023-05-10T11:11:01.337Z,98095.66
2023-05-10T11:13:34.954Z,98092.99
2023-05-10T11:16:28.178Z,98092.04
2023-05-10T11:19:09.333Z,98097.16
2023-05-10T11:22:12.287Z,98097.17
2023-05-10T11:24:40.548Z,98086.02
2023-05-10T11:27:09.076Z,98081.41
2023-05-10T11:29:37.416Z,98082.61
2023-05-10T11:32:09.456Z,98078.70
2023-05-10T11:34:38.054Z,98083.64
2023-05-10T11:37:06.279Z,98082.48
2023-05-10T11:39:34.729Z,98085.86
2023-05-10T11:42:03.193Z,98086.96
2023-05-10T11:44:32.659Z,98082.55
2023-05-10T11:47:02.259Z,98074.25
2023-05-10T11:49:31.042Z,98069.20
2023-05-10T11:52:09.407Z,98066.37
2023-05-10T11:54:37.550Z,98071.98
2023-05-10T11:57:06.003Z,98070.30
2023-05-10T11:59:34.292Z,98068.73
2023-05-10T12:02:03.323Z,98065.23
2023-05-10T12:04:32.407Z,98061.98
2023-05-10T12:07:00.702Z,98057.56
2023-05-10T12:09:42.632Z,98060.93
2023-05-10T12:12:18.110Z,98059.11
2023-05-10T12:14:51.564Z,98062.11
2023-05-10T12:17:19.592Z,98060.51
2023-05-10T12:19:48.319Z,98057.83
2023-05-10T12:22:16.327Z,98052.44
2023-05-10T12:24:46.646Z,98049.31
2023-05-10T12:27:15.981Z,98043.42
2023-05-10T12:29:47.278Z,98039.83
2023-05-10T12:32:15.419Z,98042.89
2023-05-10T12:34:43.534Z,98043.28
2023-05-10T12:37:11.752Z,98035.65
2023-05-10T12:39:45.363Z,98037.75
2023-05-10T12:42:13.422Z,98045.23
2023-05-10T12:44:41.594Z,98035.63
2023-05-10T12:47:09.751Z,98027.12
2023-05-10T12:49:37.844Z,98016.42
2023-05-10T12:52:05.999Z,98025.27
2023-05-10T12:54:34.287Z,98025.49
2023-05-10T12:57:02.484Z,98013.98
2023-05-10T12:59:30.874Z,98008.86
2023-05-10T13:01:59.400Z,98009.02
2023-05-10T13:04:27.716Z,98006.23
2023-05-10T13:06:59.908Z,97999.52
2023-05-10T13:09:30.761Z,98007.32
2023-05-10T13:11:59.099Z,98015.93
2023-05-10T13:14:27.747Z,98009.38
2023-05-10T13:16:55.959Z,98006.43
2023-05-10T13:19:24.525Z,98001.30
2023-05-10T13:21:53.101Z,97998.51
2023-05-10T13:24:21.563Z,97994.98
2023-05-10T13:26:49.869Z,97998.76
2023-05-10T13:29:19.243Z,97991.70
2023-05-10T13:31:47.465Z,97987.59
2023-05-10T13:34:15.798Z,97985.92
2023-05-10T13:36:43.794Z,97984.14
2023-05-10T13:39:12.062Z,97991.83
2023-05-10T13:41:40.147Z,97986.37
2023-05-10T13:44:08.507Z,97980.73
2023-05-10T13:46:36.799Z,97974.48
2023-05-10T13:49:05.947Z,97976.98
2023-05-10T13:51:35.287Z,97980.30
2023-05-10T13:54:04.479Z,97970.63
2023-05-10T13:56:32.495Z,97966.30
2023-05-10T13:59:00.651Z,97962.73
2023-05-10T14:01:28.764Z,97956.62
2023-05-10T14:03:57.317Z,97948.24
2023-05-10T14:06:25.873Z,97949.09
2023-05-10T14:08:55.130Z,97954.95
2023-05-10T14:11:24.819Z,97951.67
2023-05-10T14:13:53.075Z,97948.67
2023-05-10T14:16:21.720Z,97949.27
2023-05-10T14:18:50.333Z,97955.58
2023-05-10T14:21:18.892Z,97966.99
2023-05-10T14:23:47.109Z,97951.48
2023-05-10T14:26:15.346Z,97951.42
2023-05-10T14:28:43.798Z,97948.65
2023-05-10T14:31:12.703Z,97949.85
2023-05-10T14:33:41.553Z,97944.85
2023-05-10T14:36:11.411Z,97954.77
2023-05-10T14:38:39.475Z,97945.33
2023-05-10T14:41:09.970Z,97949.14
2023-05-10T14:43:39.246Z,97941.36
2023-05-10T14:46:07.442Z,97940.02
2023-05-10T14:48:36.378Z,97943.52
2023-05-10T14:51:04.775Z,97943.38
2023-05-10T14:53:33.710Z,97941.33
2023-05-10T14:56:04.799Z,97940.74
2023-05-10T14:58:34.093Z,97943.18
2023-05-10T15:01:03.005Z,97941.38
2023-05-10T15:03:32.031Z,97949.57
2023-05-10T15:06:00.649Z,97954.38
2023-05-10T15:08:28.881Z,97956.57
2023-05-10T15:10:57.097Z,97948.52
2023-05-10T15:13:25.176Z,97942.52
2023-05-10T15:15:53.569Z,97941.07
2023-05-10T15:18:23.617Z,97941.46
2023-05-10T15:20:51.844Z,97938.42
2023-05-10T15:23:20.027Z,97935.91
2023-05-10T15:25:48.516Z,97932.23
2023-05-10T15:28:16.869Z,97931.34
2023-05-10T15:30:45.375Z,97943.06
2023-05-10T15:33:13.731Z,97932.96
2023-05-10T15:35:42.226Z,97934.38
2023-05-10T15:38:11.068Z,97937.07
2023-05-10T15:40:39.165Z,97933.30
2023-05-10T15:43:07.563Z,97938.52
2023-05-10T15:45:37.609Z,97935.74
2023-05-10T15:48:06.306Z,97936.16
2023-05-10T15:50:34.424Z,97933.67
2023-05-10T15:53:02.496Z,97938.06
2023-05-10T15:55:30.781Z,97939.28
2023-05-10T15:57:59.061Z,97942.48
2023-05-10T16:00:27.430Z,97931.38
2023-05-10T16:02:55.489Z,97933.51
2023-05-10T16:05:24.304Z,97936.73
2023-05-10T16:07:52.434Z,97937.99
2023-05-10T16:10:20.569Z,97940.16
2023-05-10T16:12:49.532Z,97940.62
2023-05-10T16:15:17.914Z,97941.27
2023-05-10T16:17:46.760Z,97938.14
2023-05-10T16:20:14.865Z,97942.64
2023-05-10T16:22:44.591Z,97945.88
2023-05-10T16:25:13.659Z,97941.35
2023-05-10T16:27:43.214Z,97943.58
2023-05-10T16:30:11.732Z,97944.42
2023-05-10T16:32:39.881Z,97941.89
2023-05-10T16:35:08.834Z,97938.54
2023-05-10T16:37:37.446Z,97939.06
2023-05-10T16:40:06.511Z,97946.53
2023-05-10T16:42:34.691Z,97940.64
2023-05-10T16:45:07.900Z,97944.10
2023-05-10T16:47:37.151Z,97949.35
2023-05-10T16:50:07.759Z,97948.17
2023-05-10T16:52:37.318Z,97946.00
2023-05-10T16:55:06.119Z,97955.11
2023-05-10T16:57:35.466Z,97954.43
2023-05-10T17:00:05.265Z,97956.63
2023-05-10T17:02:33.463Z,97957.33
2023-05-10T17:05:01.857Z,97961.35
2023-05-10T17:07:30.634Z,97962.64
2023-05-10T17:09:59.665Z,97966.27
2023-05-10T17:12:28.143Z,97968.13
2023-05-10T17:14:56.563Z,97963.43
2023-05-10T17:17:25.323Z,97970.83
2023-05-10T17:19:53.569Z,97973.77
2023-05-10T17:22:21.934Z,97973.46
2023-05-10T17:24:50.721Z,97976.02
2023-05-10T17:27:18.902Z,97978.83
2023-05-10T17:29:46.972Z,97979.61
2023-05-10T17:32:14.979Z,97980.05
2023-05-10T17:34:43.411Z,97979.00
2023-05-10T17:37:12.215Z,97983.27
2023-05-10T17:39:40.374Z,97984.31
2023-05-10T17:42:08.748Z,97984.17
2023-05-10T17:44:37.015Z,97983.08
2023-05-10T17:47:06.421Z,97984.05
2023-05-10T17:49:34.477Z,97986.36
2023-05-10T17:52:02.605Z,97987.22
2023-05-10T17:54:30.846Z,97992.11
2023-05-10T17:57:01.065Z,97999.18
2023-05-10T17:59:29.480Z,98001.67
2023-05-10T18:01:58.030Z,98003.23
2023-05-10T18:04:26.301Z,98006.71
2023-05-10T18:07:01.367Z,98009.27
2023-05-10T18:09:30.216Z,98013.36
2023-05-10T18:11:58.398Z,98019.40
2023-05-10T18:14:39.648Z,98021.42
2023-05-10T18:17:10.093Z,98026.64
2023-05-10T18:19:38.630Z,98028.54
2023-05-10T18:22:10.449Z,98026.31
2023-05-10T18:24:40.076Z,98035.77
2023-05-10T18:27:09.494Z,98036.77
2023-05-10T18:29:37.925Z,98038.94
2023-05-10T18:32:06.799Z,98042.27
2023-05-10T18:34:35.103Z,98048.04
2023-05-10T18:37:07.904Z,98049.22
2023-05-10T18:39:37.559Z,98050.88
2023-05-10T18:42:06.003Z,98049.58
2023-05-10T18:44:34.308Z,98047.31
2023-05-10T18:47:02.489Z,98049.21
2023-05-10T18:49:30.992Z,98053.51
2023-05-10T18:51:59.150Z,98050.27
2023-05-10T18:54:27.648Z,98049.80
2023-05-10T18:56:57.623Z,98052.67
2023-05-10T18:59:28.167Z,98058.19
2023-05-10T19:01:57.465Z,98062.90
2023-05-10T19:04:26.251Z,98063.98
2023-05-10T19:06:56.074Z,98064.02
2023-05-10T19:09:26.982Z,98063.02
2023-05-10T19:11:55.307Z,98065.57
2023-05-10T19:14:25.395Z,98063.49
2023-05-10T19:16:54.465Z,98068.00
2023-05-10T19:19:22.832Z,98069.91
2023-05-10T19:21:51.170Z,98069.91
2023-05-10T19:24:22.280Z,98076.10
2023-05-10T19:26:50.586Z,98076.92
2023-05-10T19:29:18.861Z,98079.58
2023-05-10T19:31:47.366Z,98080.39
2023-05-10T19:34:16.301Z,98080.80
2023-05-10T19:36:45.102Z,98082.73
2023-05-10T19:39:13.395Z,98082.39
2023-05-10T19:41:41.775Z,98092.07
2023-05-10T19:44:09.828Z,98086.69
2023-05-10T19:46:38.077Z,98090.58
2023-05-10T19:49:06.523Z,98091.89
2023-05-10T19:51:34.776Z,98091.16
2023-05-10T19:54:02.894Z,98090.56
2023-05-10T19:56:31.123Z,98086.15
2023-05-10T19:58:59.603Z,98090.02
2023-05-10T20:01:27.722Z,98090.50
2023-05-10T20:03:57.001Z,98093.60
2023-05-10T20:06:25.246Z,98097.45
2023-05-10T20:08:53.422Z,98095.36
2023-05-10T20:11:21.908Z,98094.63
2023-05-10T20:13:50.093Z,98098.04
2023-05-10T20:16:18.541Z,98102.20
2023-05-10T20:18:47.146Z,98100.72
2023-05-10T20:21:15.424Z,98099.48
2023-05-10T20:23:43.687Z,98103.08
2023-05-10T20:26:12.708Z,98102.39
2023-05-10T20:28:42.009Z,98104.58
2023-05-10T20:31:10.256Z,98102.52
2023-05-10T20:33:38.439Z,98100.08
2023-05-10T20:36:09.551Z,98098.14
2023-05-10T20:38:38.102Z,98104.63
2023-05-10T20:41:06.432Z,98110.98
2023-05-10T20:43:34.601Z,98111.64
2023-05-10T20:46:05.522Z,98109.48
2023-05-10T20:48:34.434Z,98107.28
2023-05-10T20:51:02.784Z,98106.02
2023-05-10T20:53:31.102Z,98108.48
2023-05-10T20:55:59.362Z,98111.95
2023-05-10T20:58:27.745Z,98106.94
2023-05-10T21:00:55.774Z,98109.94
2023-05-10T21:03:24.154Z,98114.80
2023-05-10T21:05:52.249Z,98119.32
2023-05-10T21:08:20.831Z,98122.61
2023-05-10T21:10:49.036Z,98128.33
2023-05-10T21:13:17.286Z,98126.65
2023-05-10T21:15:45.464Z,98125.84
2023-05-10T21:18:14.172Z,98122.54
2023-05-10T21:20:42.416Z,98121.33
2023-05-10T21:23:10.618Z,98125.65
2023-05-10T21:25:38.869Z,98129.27
2023-05-10T21:28:07.248Z,98128.29
2023-05-10T21:30:35.537Z,98128.28
2023-05-10T21:33:03.913Z,98129.77
2023-05-10T21:35:32.288Z,98134.23
2023-05-10T21:38:00.450Z,98131.77
2023-05-10T21:40:29.153Z,98133.81
2023-05-10T21:42:57.927Z,98135.33
2023-05-10T21:45:26.222Z,98136.73
2023-05-10T21:47:54.792Z,98134.12
2023-05-10T21:50:23.065Z,98134.19
2023-05-10T21:52:51.269Z,98138.63
2023-05-10T21:55:19.646Z,98140.20
2023-05-10T21:57:48.043Z,98141.06
2023-05-10T22:00:19.202Z,98143.64
2023-05-10T22:02:47.773Z,98142.66
2023-05-10T22:05:16.314Z,98143.47
2023-05-10T22:07:44.380Z,98146.70
2023-05-10T22:10:12.543Z,98146.02
2023-05-10T22:12:40.909Z,98151.94
2023-05-10T22:15:10.747Z,98154.76
2023-05-10T22:17:40.738Z,98152.89
2023-05-10T22:20:09.813Z,98153.98
2023-05-10T22:22:38.206Z,98150.02
2023-05-10T22:25:07.804Z,98151.05
2023-05-10T22:27:35.975Z,98149.21
2023-05-10T22:30:05.195Z,98149.17
2023-05-10T22:32:33.331Z,98149.02
2023-05-10T22:35:01.436Z,98148.23
2023-05-10T22:37:29.497Z,98148.81
2023-05-10T22:39:57.767Z,98149.75
2023-05-10T22:42:26.298Z,98147.90
2023-05-10T22:44:54.367Z,98142.58
2023-05-10T22:47:22.514Z,98143.54
2023-05-10T22:49:50.676Z,98143.83
2023-05-10T22:52:18.906Z,98142.80
2023-05-10T22:54:47.302Z,98144.30
2023-05-10T22:57:16.528Z,98143.29
2023-05-10T22:59:44.791Z,98142.05
2023-05-10T23:02:14.338Z,98144.60
2023-05-10T23:04:42.501Z,98139.86
2023-05-10T23:07:11.593Z,98140.61
2023-05-10T23:09:40.022Z,98142.01
2023-05-10T23:12:08.352Z,98142.52
2023-05-10T23:14:36.403Z,98143.64
2023-05-10T23:17:04.755Z,98141.38
2023-05-10T23:19:32.792Z,98141.87
2023-05-10T23:22:01.337Z,98141.38
2023-05-10T23:24:29.502Z,98139.36
2023-05-10T23:26:57.541Z,98138.44
2023-05-10T23:29:26.559Z,98140.96
2023-05-10T23:31:54.778Z,98139.80
2023-05-10T23:34:22.843Z,98140.73
2023-05-10T23:36:51.083Z,98141.30
2023-05-10T23:39:19.283Z,98141.03
2023-05-10T23:41:47.976Z,98144.31
2023-05-10T23:44:16.758Z,98145.38
2023-05-10T23:46:44.908Z,98149.13
2023-05-10T23:49:13.034Z,98148.69
2023-05-10T23:51:41.126Z,98146.32
2023-05-10T23:54:09.497Z,98147.29
2023-05-10T23:56:38.002Z,98145.19
2023-05-10T23:59:06.178Z,98147.86
